Wetterdaten: Donnerstag, 28.06.2007
Datum Zeit Temp. A. Feuchte A. Luftdruck Regen Wind Richtung Richtung Sonnenschein UV Solar Windben
28.06.2007 00:00 13,2 C 72 % 1006,4 hPa 0,0 mm 3,2 km/h (1 Bft) W-SW 247 0 min 0 UV-I 0 W/m 9,7 km/h (2 Bft)
28.06.2007 00:10 13,1 C 73 % 1006,3 hPa 0,0 mm 3,2 km/h (1 Bft) S-SW 202 0 min 0 UV-I 0 W/m 11,3 km/h (2 Bft)
28.06.2007 00:20 13,1 C 73 % 1006,3 hPa 0,0 mm 4,8 km/h (1 Bft) SW 225 0 min 0 UV-I 0 W/m 17,7 km/h (3 Bft)
28.06.2007 00:30 13,1 C 73 % 1006,3 hPa 0,0 mm 4,8 km/h (1 Bft) S-SW 202 0 min 0 UV-I 0 W/m 11,3 km/h (2 Bft)
28.06.2007 00:40 13,1 C 73 % 1006,3 hPa 0,0 mm 4,8 km/h (1 Bft) W-SW 247 0 min 0 UV-I 0 W/m 8,0 km/h (2 Bft)
28.06.2007 00:50 13,1 C 73 % 1006,3 hPa 0,0 mm 4,8 km/h (1 Bft) SW 225 0 min 0 UV-I 0 W/m 17,7 km/h (3 Bft)
28.06.2007 01:00 13,1 C 74 % 1006,3 hPa 0,0 mm 4,8 km/h (1 Bft) SW 225 0 min 0 UV-I 0 W/m 16,1 km/h (3 Bft)
28.06.2007 01:10 13,1 C 74 % 1006,3 hPa 0,0 mm 4,8 km/h (1 Bft) W-SW 247 0 min 0 UV-I 0 W/m 11,3 km/h (2 Bft)
28.06.2007 01:20 13,1 C 75 % 1006,4 hPa 0,0 mm 4,8 km/h (1 Bft) W-SW 247 0 min 0 UV-I 0 W/m 17,7 km/h (3 Bft)
28.06.2007 01:30 13,1 C 76 % 1006,4 hPa 0,0 mm 6,4 km/h (2 Bft) SW 225 0 min 0 UV-I 0 W/m 20,9 km/h (4 Bft)
28.06.2007 01:40 13,1 C 79 % 1006,4 hPa 0,0 mm 6,4 km/h (2 Bft) W-SW 247 0 min 0 UV-I 0 W/m 17,7 km/h (3 Bft)
28.06.2007 01:50 12,8 C 80 % 1006,5 hPa 0,0 mm 8,0 km/h (2 Bft) W-SW 247 0 min 0 UV-I 0 W/m 22,5 km/h (4 Bft)
28.06.2007 02:00 12,6 C 83 % 1006,5 hPa 0,3 mm 6,4 km/h (2 Bft) W-SW 247 0 min 0 UV-I 0 W/m 16,1 km/h (3 Bft)
28.06.2007 02:10 12,3 C 85 % 1006,3 hPa 0,0 mm 3,2 km/h (1 Bft) S-SW 202 0 min 0 UV-I 0 W/m 14,5 km/h (3 Bft)
28.06.2007 02:20 12,2 C 85 % 1006,2 hPa 0,0 mm 3,2 km/h (1 Bft) SW 225 0 min 0 UV-I 0 W/m 11,3 km/h (2 Bft)
28.06.2007 02:30 12,1 C 86 % 1006,2 hPa 0,3 mm 1,6 km/h (1 Bft) S-SW 202 0 min 0 UV-I 0 W/m 6,4 km/h (2 Bft)
28.06.2007 02:40 11,9 C 86 % 1006,2 hPa 0,0 mm 1,6 km/h (1 Bft) S-SW 202 0 min 0 UV-I 0 W/m 8,0 km/h (2 Bft)
28.06.2007 02:50 11,8 C 87 % 1006,3 hPa 0,0 mm 1,6 km/h (1 Bft) S-SW 202 0 min 0 UV-I 0 W/m 6,4 km/h (2 Bft)
28.06.2007 03:00 11,8 C 87 % 1006,2 hPa 0,0 mm 1,6 km/h (1 Bft) S-SW 202 0 min 0 UV-I 0 W/m 8,0 km/h (2 Bft)
28.06.2007 03:10 11,7 C 87 % 1006,1 hPa 0,0 mm 1,6 km/h (1 Bft) S-SW 202 0 min 0 UV-I 0 W/m 8,0 km/h (2 Bft)
28.06.2007 03:20 11,7 C 88 % 1006,1 hPa 0,0 mm 1,6 km/h (1 Bft) S-SW 202 0 min 0 UV-I 0 W/m 4,8 km/h (1 Bft)
28.06.2007 03:30 11,7 C 88 % 1006,2 hPa 0,0 mm 1,6 km/h (1 Bft) S 180 0 min 0 UV-I 0 W/m 6,4 km/h (2 Bft)
28.06.2007 03:40 11,7 C 88 % 1006,2 hPa 0,0 mm 1,6 km/h (1 Bft) S 180 0 min 0 UV-I 0 W/m 4,8 km/h (1 Bft)
28.06.2007 03:50 11,6 C 88 % 1006,2 hPa 0,0 mm 1,6 km/h (1 Bft) SW 225 0 min 0 UV-I 0 W/m 6,4 km/h (2 Bft)
28.06.2007 04:00 11,7 C 88 % 1006,2 hPa 0,0 mm 1,6 km/h (1 Bft) SW 225 0 min 0 UV-I 0 W/m 8,0 km/h (2 Bft)
28.06.2007 04:10 11,7 C 87 % 1006,2 hPa 0,0 mm 3,2 km/h (1 Bft) W 270 0 min 0 UV-I 0 W/m 6,4 km/h (2 Bft)
28.06.2007 04:20 11,8 C 87 % 1006,2 hPa 0,0 mm 3,2 km/h (1 Bft) W-SW 247 0 min 0 UV-I 0 W/m 8,0 km/h (2 Bft)
28.06.2007 04:30 11,8 C 86 % 1006,2 hPa 0,0 mm 3,2 km/h (1 Bft) W-SW 247 0 min 0 UV-I 0 W/m 8,0 km/h (2 Bft)
28.06.2007 04:40 11,9 C 86 % 1006,2 hPa 0,0 mm 3,2 km/h (1 Bft) SW 225 0 min 0 UV-I 0 W/m 8,0 km/h (2 Bft)
28.06.2007 04:50 11,9 C 85 % 1006,2 hPa 0,0 mm 3,2 km/h (1 Bft) SW 225 0 min 0 UV-I 0 W/m 8,0 km/h (2 Bft)
28.06.2007 05:00 11,9 C 85 % 1006,2 hPa 0,0 mm 3,2 km/h (1 Bft) SW 225 0 min 0 UV-I 0 W/m 9,7 km/h (2 Bft)
28.06.2007 05:10 11,9 C 85 % 1006,2 hPa 0,0 mm 3,2 km/h (1 Bft) SW 225 0 min 0 UV-I 0 W/m 9,7 km/h (2 Bft)
28.06.2007 05:20 11,9 C 85 % 1006,2 hPa 0,0 mm 1,6 km/h (1 Bft) S 180 0 min 0 UV-I 0 W/m 6,4 km/h (2 Bft)
28.06.2007 05:30 11,8 C 85 % 1006,2 hPa 0,0 mm 1,6 km/h (1 Bft) SW 225 0 min 0 UV-I 11 W/m 8,0 km/h (2 Bft)
28.06.2007 05:40 11,8 C 85 % 1006,2 hPa 0,0 mm 1,6 km/h (1 Bft) S-SW 202 0 min 0 UV-I 16 W/m 6,4 km/h (2 Bft)
28.06.2007 05:50 11,7 C 86 % 1006,2 hPa 0,0 mm 3,2 km/h (1 Bft) S-SW 202 0 min 0 UV-I 26 W/m 8,0 km/h (2 Bft)
28.06.2007 06:00 11,8 C 86 % 1006,1 hPa 0,0 mm 3,2 km/h (1 Bft) W-SW 247 10 min 0 UV-I 53 W/m 9,7 km/h (2 Bft)
28.06.2007 06:10 11,9 C 85 % 1006,2 hPa 0,0 mm 3,2 km/h (1 Bft) S-SW 202 0 min 0 UV-I 44 W/m 9,7 km/h (2 Bft)
28.06.2007 06:20 12,0 C 85 % 1006,1 hPa 0,0 mm 1,6 km/h (1 Bft) S-SW 202 0 min 0 UV-I 39 W/m 6,4 km/h (2 Bft)
28.06.2007 06:30 12,1 C 85 % 1006,1 hPa 0,0 mm 1,6 km/h (1 Bft) W-SW 247 0 min 0 UV-I 37 W/m 6,4 km/h (2 Bft)
28.06.2007 06:40 12,2 C 85 % 1006,2 hPa 0,0 mm 1,6 km/h (1 Bft) S-SW 202 0 min 0 UV-I 60 W/m 4,8 km/h (1 Bft)
28.06.2007 06:50 12,3 C 84 % 1006,2 hPa 0,0 mm 1,6 km/h (1 Bft) W-SW 247 0 min 0 UV-I 46 W/m 6,4 km/h (2 Bft)
28.06.2007 07:00 12,4 C 83 % 1006,2 hPa 0,0 mm 3,2 km/h (1 Bft) W-SW 247 0 min 0 UV-I 56 W/m 8,0 km/h (2 Bft)
28.06.2007 07:10 12,6 C 82 % 1006,3 hPa 0,0 mm 3,2 km/h (1 Bft) S-SW 202 0 min 0 UV-I 81 W/m 11,3 km/h (2 Bft)
28.06.2007 07:20 12,7 C 82 % 1006,3 hPa 0,0 mm 3,2 km/h (1 Bft) W-SW 247 0 min 0 UV-I 83 W/m 9,7 km/h (2 Bft)
28.06.2007 07:30 12,8 C 82 % 1006,3 hPa 0,0 mm 3,2 km/h (1 Bft) S-SW 202 0 min 0 UV-I 81 W/m 9,7 km/h (2 Bft)
28.06.2007 07:40 12,9 C 81 % 1006,4 hPa 0,0 mm 4,8 km/h (1 Bft) SW 225 0 min 0 UV-I 46 W/m 11,3 km/h (2 Bft)
28.06.2007 07:50 12,9 C 81 % 1006,5 hPa 0,0 mm 4,8 km/h (1 Bft) S-SW 202 0 min 0 UV-I 40 W/m 11,3 km/h (2 Bft)
28.06.2007 08:00 12,8 C 82 % 1006,6 hPa 0,0 mm 4,8 km/h (1 Bft) SW 225 0 min 0 UV-I 86 W/m 17,7 km/h (3 Bft)
28.06.2007 08:10 12,8 C 83 % 1006,7 hPa 0,0 mm 4,8 km/h (1 Bft) S-SW 202 0 min 0 UV-I 113 W/m 9,7 km/h (2 Bft)
28.06.2007 08:20 12,8 C 83 % 1006,8 hPa 0,0 mm 4,8 km/h (1 Bft) SW 225 0 min 1 UV-I 97 W/m 14,5 km/h (3 Bft)
28.06.2007 08:30 12,9 C 82 % 1006,7 hPa 0,0 mm 4,8 km/h (1 Bft) SW 225 0 min 1 UV-I 121 W/m 12,9 km/h (3 Bft)
28.06.2007 08:40 13,1 C 82 % 1006,7 hPa 0,0 mm 4,8 km/h (1 Bft) SW 225 0 min 0 UV-I 100 W/m 11,3 km/h (2 Bft)
28.06.2007 08:50 13,1 C 84 % 1006,7 hPa 0,3 mm 6,4 km/h (2 Bft) SW 225 0 min 0 UV-I 72 W/m 19,3 km/h (3 Bft)
28.06.2007 09:00 12,8 C 86 % 1006,7 hPa 0,0 mm 6,4 km/h (2 Bft) S-SW 202 0 min 1 UV-I 114 W/m 22,5 km/h (4 Bft)
28.06.2007 09:10 12,7 C 87 % 1006,9 hPa 0,3 mm 4,8 km/h (1 Bft) W-SW 247 0 min 1 UV-I 104 W/m 16,1 km/h (3 Bft)
28.06.2007 09:20 12,6 C 87 % 1007,0 hPa 0,0 mm 4,8 km/h (1 Bft) S-SW 202 0 min 1 UV-I 91 W/m 14,5 km/h (3 Bft)
28.06.2007 09:30 12,5 C 88 % 1007,0 hPa 0,0 mm 4,8 km/h (1 Bft) W-SW 247 0 min 0 UV-I 63 W/m 9,7 km/h (2 Bft)
28.06.2007 09:40 12,4 C 89 % 1007,1 hPa 0,3 mm 6,4 km/h (2 Bft) W 270 0 min 1 UV-I 83 W/m 20,9 km/h (4 Bft)
28.06.2007 09:50 12,3 C 89 % 1007,3 hPa 0,3 mm 6,4 km/h (2 Bft) W-SW 247 0 min 1 UV-I 81 W/m 16,1 km/h (3 Bft)
28.06.2007 10:00 12,4 C 89 % 1007,4 hPa 0,0 mm 6,4 km/h (2 Bft) W-SW 247 0 min 1 UV-I 214 W/m 20,9 km/h (4 Bft)
28.06.2007 10:10 12,7 C 89 % 1007,5 hPa 0,3 mm 4,8 km/h (1 Bft) W 270 0 min 1 UV-I 137 W/m 14,5 km/h (3 Bft)
28.06.2007 10:20 12,8 C 89 % 1007,7 hPa 0,0 mm 8,0 km/h (2 Bft) W 270 0 min 2 UV-I 225 W/m 16,1 km/h (3 Bft)
28.06.2007 10:30 13,0 C 88 % 1007,8 hPa 0,0 mm 8,0 km/h (2 Bft) W-SW 247 0 min 2 UV-I 232 W/m 20,9 km/h (4 Bft)
28.06.2007 10:40 13,0 C 87 % 1007,9 hPa 0,0 mm 9,7 km/h (2 Bft) W 270 0 min 1 UV-I 213 W/m 22,5 km/h (4 Bft)
28.06.2007 10:50 13,0 C 88 % 1008,0 hPa 0,0 mm 9,7 km/h (2 Bft) W 270 0 min 2 UV-I 243 W/m 27,4 km/h (4 Bft)
28.06.2007 11:00 13,1 C 87 % 1008,2 hPa 0,0 mm 8,0 km/h (2 Bft) W 270 0 min 2 UV-I 225 W/m 19,3 km/h (3 Bft)
28.06.2007 11:10 12,9 C 88 % 1008,4 hPa 0,5 mm 6,4 km/h (2 Bft) W-SW 247 0 min 2 UV-I 225 W/m 19,3 km/h (3 Bft)
28.06.2007 11:20 12,9 C 89 % 1008,4 hPa 0,0 mm 6,4 km/h (2 Bft) W-SW 247 0 min 2 UV-I 257 W/m 16,1 km/h (3 Bft)
28.06.2007 11:30 13,0 C 89 % 1008,4 hPa 0,0 mm 8,0 km/h (2 Bft) W-SW 247 0 min 2 UV-I 311 W/m 17,7 km/h (3 Bft)
28.06.2007 11:40 13,2 C 89 % 1008,5 hPa 0,0 mm 6,4 km/h (2 Bft) W-SW 247 0 min 3 UV-I 376 W/m 16,1 km/h (3 Bft)
28.06.2007 11:50 13,4 C 87 % 1008,6 hPa 0,0 mm 8,0 km/h (2 Bft) W 270 0 min 3 UV-I 367 W/m 25,7 km/h (4 Bft)
28.06.2007 12:00 13,6 C 87 % 1008,7 hPa 0,0 mm 6,4 km/h (2 Bft) W-SW 247 10 min 4 UV-I 496 W/m 16,1 km/h (3 Bft)
28.06.2007 12:10 14,0 C 86 % 1008,7 hPa 0,0 mm 6,4 km/h (2 Bft) W-SW 247 0 min 3 UV-I 436 W/m 17,7 km/h (3 Bft)
28.06.2007 12:20 14,3 C 82 % 1008,7 hPa 0,0 mm 6,4 km/h (2 Bft) W-SW 247 0 min 3 UV-I 441 W/m 16,1 km/h (3 Bft)
28.06.2007 12:30 14,7 C 80 % 1008,8 hPa 0,0 mm 8,0 km/h (2 Bft) W-SW 247 10 min 6 UV-I 605 W/m 20,9 km/h (4 Bft)
28.06.2007 12:40 15,3 C 75 % 1008,8 hPa 0,0 mm 9,7 km/h (2 Bft) W 270 10 min 6 UV-I 807 W/m 22,5 km/h (4 Bft)
28.06.2007 12:50 15,3 C 74 % 1008,8 hPa 0,0 mm 9,7 km/h (2 Bft) W-SW 247 10 min 5 UV-I 722 W/m 19,3 km/h (3 Bft)
28.06.2007 13:00 15,6 C 73 % 1008,9 hPa 0,0 mm 9,7 km/h (2 Bft) W-SW 247 10 min 8 UV-I 1274 W/m 25,7 km/h (4 Bft)
28.06.2007 13:10 16,2 C 69 % 1009,0 hPa 0,0 mm 8,0 km/h (2 Bft) W 270 10 min 6 UV-I 645 W/m 20,9 km/h (4 Bft)
28.06.2007 13:20 15,8 C 67 % 1009,0 hPa 0,0 mm 9,7 km/h (2 Bft) W-SW 247 0 min 3 UV-I 329 W/m 22,5 km/h (4 Bft)
28.06.2007 13:30 15,2 C 70 % 1009,3 hPa 0,0 mm 9,7 km/h (2 Bft) W 270 0 min 2 UV-I 232 W/m 22,5 km/h (4 Bft)
28.06.2007 13:40 15,0 C 67 % 1009,5 hPa 0,0 mm 12,9 km/h (3 Bft) W 270 0 min 4 UV-I 410 W/m 25,7 km/h (4 Bft)
28.06.2007 13:50 15,1 C 66 % 1009,7 hPa 0,0 mm 11,3 km/h (2 Bft) W 270 0 min 4 UV-I 466 W/m 25,7 km/h (4 Bft)
28.06.2007 14:00 15,0 C 69 % 1009,9 hPa 0,0 mm 8,0 km/h (2 Bft) W-SW 247 0 min 3 UV-I 322 W/m 25,7 km/h (4 Bft)
28.06.2007 14:10 14,9 C 62 % 1010,1 hPa 0,0 mm 11,3 km/h (2 Bft) W 270 0 min 2 UV-I 204 W/m 22,5 km/h (4 Bft)
28.06.2007 14:20 14,0 C 68 % 1010,0 hPa 0,0 mm 9,7 km/h (2 Bft) W 270 0 min 2 UV-I 209 W/m 24,1 km/h (4 Bft)
28.06.2007 14:30 13,6 C 71 % 1010,1 hPa 0,0 mm 4,8 km/h (1 Bft) W-SW 247 0 min 2 UV-I 288 W/m 11,3 km/h (2 Bft)
28.06.2007 14:40 13,7 C 71 % 1010,2 hPa 0,0 mm 4,8 km/h (1 Bft) SW 225 0 min 2 UV-I 290 W/m 16,1 km/h (3 Bft)
28.06.2007 14:50 13,8 C 70 % 1010,3 hPa 0,0 mm 6,4 km/h (2 Bft) W-SW 247 0 min 2 UV-I 302 W/m 20,9 km/h (4 Bft)
28.06.2007 15:00 14,1 C 67 % 1010,3 hPa 0,0 mm 6,4 km/h (2 Bft) W 270 10 min 4 UV-I 563 W/m 17,7 km/h (3 Bft)
28.06.2007 15:10 14,8 C 64 % 1010,3 hPa 0,0 mm 9,7 km/h (2 Bft) W-SW 247 10 min 6 UV-I 1137 W/m 22,5 km/h (4 Bft)
28.06.2007 15:20 16,1 C 63 % 1010,3 hPa 0,0 mm 8,0 km/h (2 Bft) W-SW 247 10 min 5 UV-I 833 W/m 20,9 km/h (4 Bft)
28.06.2007 15:30 16,6 C 60 % 1010,3 hPa 0,0 mm 9,7 km/h (2 Bft) W 270 10 min 5 UV-I 837 W/m 19,3 km/h (3 Bft)
28.06.2007 15:40 17,1 C 61 % 1010,4 hPa 0,0 mm 8,0 km/h (2 Bft) W-SW 247 10 min 5 UV-I 970 W/m 22,5 km/h (4 Bft)
28.06.2007 15:50 17,1 C 58 % 1010,5 hPa 0,0 mm 9,7 km/h (2 Bft) W 270 10 min 3 UV-I 422 W/m 25,7 km/h (4 Bft)
28.06.2007 16:00 15,9 C 63 % 1010,8 hPa 0,0 mm 12,9 km/h (3 Bft) W 270 0 min 1 UV-I 65 W/m 30,6 km/h (5 Bft)
28.06.2007 16:10 14,8 C 68 % 1010,9 hPa 0,0 mm 6,4 km/h (2 Bft) W 270 0 min 2 UV-I 241 W/m 16,1 km/h (3 Bft)
28.06.2007 16:20 14,5 C 68 % 1010,9 hPa 0,0 mm 6,4 km/h (2 Bft) W 270 0 min 2 UV-I 232 W/m 17,7 km/h (3 Bft)
28.06.2007 16:30 14,4 C 67 % 1011,0 hPa 0,0 mm 4,8 km/h (1 Bft) W-NW 292 0 min 1 UV-I 123 W/m 11,3 km/h (2 Bft)
28.06.2007 16:40 14,2 C 66 % 1011,1 hPa 0,0 mm 3,2 km/h (1 Bft) W-NW 292 0 min 1 UV-I 134 W/m 11,3 km/h (2 Bft)
28.06.2007 16:50 14,2 C 68 % 1011,2 hPa 0,0 mm 3,2 km/h (1 Bft) W-NW 292 10 min 2 UV-I 364 W/m 8,0 km/h (2 Bft)
28.06.2007 17:00 14,8 C 65 % 1011,2 hPa 0,0 mm 4,8 km/h (1 Bft) W 270 10 min 3 UV-I 508 W/m 12,9 km/h (3 Bft)
28.06.2007 17:10 15,1 C 64 % 1011,2 hPa 0,0 mm 4,8 km/h (1 Bft) W 270 10 min 2 UV-I 404 W/m 11,3 km/h (2 Bft)
28.06.2007 17:20 15,8 C 58 % 1011,1 hPa 0,0 mm 4,8 km/h (1 Bft) W-NW 292 10 min 3 UV-I 817 W/m 16,1 km/h (3 Bft)
28.06.2007 17:30 16,9 C 54 % 1011,2 hPa 0,0 mm 6,4 km/h (2 Bft) W-NW 292 10 min 3 UV-I 649 W/m 19,3 km/h (3 Bft)
28.06.2007 17:40 17,1 C 56 % 1011,2 hPa 0,0 mm 8,0 km/h (2 Bft) W-NW 292 10 min 3 UV-I 652 W/m 22,5 km/h (4 Bft)
28.06.2007 17:50 16,8 C 54 % 1011,3 hPa 0,0 mm 9,7 km/h (2 Bft) W-NW 292 0 min 1 UV-I 149 W/m 29,0 km/h (5 Bft)
28.06.2007 18:00 16,2 C 56 % 1011,3 hPa 0,0 mm 6,4 km/h (2 Bft) W 270 0 min 1 UV-I 144 W/m 20,9 km/h (4 Bft)
28.06.2007 18:10 15,7 C 56 % 1011,3 hPa 0,0 mm 4,8 km/h (1 Bft) W-NW 292 0 min 1 UV-I 190 W/m 14,5 km/h (3 Bft)
28.06.2007 18:20 15,5 C 57 % 1011,3 hPa 0,0 mm 4,8 km/h (1 Bft) W-NW 292 0 min 1 UV-I 236 W/m 11,3 km/h (2 Bft)
28.06.2007 18:30 15,8 C 57 % 1011,3 hPa 0,0 mm 3,2 km/h (1 Bft) W 270 10 min 1 UV-I 636 W/m 8,0 km/h (2 Bft)
28.06.2007 18:40 16,4 C 53 % 1011,3 hPa 0,0 mm 4,8 km/h (1 Bft) W 270 10 min 1 UV-I 575 W/m 9,7 km/h (2 Bft)
28.06.2007 18:50 16,7 C 52 % 1011,4 hPa 0,0 mm 3,2 km/h (1 Bft) W 270 10 min 1 UV-I 410 W/m 11,3 km/h (2 Bft)
28.06.2007 19:00 16,6 C 54 % 1011,4 hPa 0,0 mm 4,8 km/h (1 Bft) W-NW 292 10 min 1 UV-I 371 W/m 11,3 km/h (2 Bft)
28.06.2007 19:10 16,8 C 54 % 1011,4 hPa 0,0 mm 4,8 km/h (1 Bft) W 270 10 min 1 UV-I 353 W/m 8,0 km/h (2 Bft)
28.06.2007 19:20 16,7 C 54 % 1011,5 hPa 0,0 mm 4,8 km/h (1 Bft) W 270 10 min 1 UV-I 271 W/m 11,3 km/h (2 Bft)
28.06.2007 19:30 16,6 C 54 % 1011,6 hPa 0,0 mm 4,8 km/h (1 Bft) W 270 10 min 1 UV-I 306 W/m 11,3 km/h (2 Bft)
28.06.2007 19:40 16,9 C 52 % 1011,6 hPa 0,0 mm 4,8 km/h (1 Bft) W 270 10 min 1 UV-I 306 W/m 11,3 km/h (2 Bft)
28.06.2007 19:50 16,8 C 52 % 1011,6 hPa 0,0 mm 4,8 km/h (1 Bft) W 270 10 min 1 UV-I 264 W/m 14,5 km/h (3 Bft)
28.06.2007 20:00 16,7 C 52 % 1011,6 hPa 0,0 mm 4,8 km/h (1 Bft) W-NW 292 10 min 0 UV-I 213 W/m 9,7 km/h (2 Bft)
28.06.2007 20:10 16,6 C 54 % 1011,7 hPa 0,0 mm 3,2 km/h (1 Bft) W 270 10 min 0 UV-I 176 W/m 9,7 km/h (2 Bft)
28.06.2007 20:20 16,4 C 56 % 1011,8 hPa 0,0 mm 1,6 km/h (1 Bft) SW 225 10 min 0 UV-I 151 W/m 8,0 km/h (2 Bft)
28.06.2007 20:30 16,3 C 56 % 1011,7 hPa 0,0 mm 1,6 km/h (1 Bft) W-SW 247 0 min 0 UV-I 86 W/m 4,8 km/h (1 Bft)
28.06.2007 20:40 16,2 C 57 % 1011,7 hPa 0,0 mm 3,2 km/h (1 Bft) W 270 0 min 0 UV-I 70 W/m 6,4 km/h (2 Bft)
28.06.2007 20:50 15,9 C 58 % 1011,8 hPa 0,0 mm 0,0 km/h (0 Bft) W-SW 247 0 min 0 UV-I 42 W/m 3,2 km/h (1 Bft)
28.06.2007 21:00 15,7 C 61 % 1011,8 hPa 0,0 mm 0,0 km/h (0 Bft) W-SW 247 0 min 0 UV-I 46 W/m 3,2 km/h (1 Bft)
28.06.2007 21:10 15,4 C 64 % 1011,9 hPa 0,0 mm 0,0 km/h (0 Bft) W-SW 247 10 min 0 UV-I 40 W/m 1,6 km/h (1 Bft)
28.06.2007 21:20 15,3 C 65 % 1011,9 hPa 0,0 mm 0,0 km/h (0 Bft) W-SW 247 10 min 0 UV-I 42 W/m 1,6 km/h (1 Bft)
28.06.2007 21:30 15,1 C 67 % 1012,0 hPa 0,0 mm 0,0 km/h (0 Bft) N 0 10 min 0 UV-I 28 W/m 0,0 km/h (0 Bft)
28.06.2007 21:40 14,9 C 66 % 1012,1 hPa 0,0 mm 0,0 km/h (0 Bft) N 0 0 min 0 UV-I 16 W/m 0,0 km/h (0 Bft)
28.06.2007 21:50 14,7 C 68 % 1012,2 hPa 0,0 mm 0,0 km/h (0 Bft) W-SW 247 0 min 0 UV-I 0 W/m 1,6 km/h (1 Bft)
28.06.2007 22:00 14,3 C 69 % 1012,4 hPa 0,0 mm 0,0 km/h (0 Bft) W-SW 247 0 min 0 UV-I 0 W/m 1,6 km/h (1 Bft)
28.06.2007 22:10 13,9 C 72 % 1012,4 hPa 0,0 mm 0,0 km/h (0 Bft) W-SW 247 0 min 0 UV-I 0 W/m 1,6 km/h (1 Bft)
28.06.2007 22:20 13,4 C 74 % 1012,4 hPa 0,0 mm 0,0 km/h (0 Bft) N 0 0 min 0 UV-I 0 W/m 0,0 km/h (0 Bft)
28.06.2007 22:30 12,8 C 76 % 1012,5 hPa 0,0 mm 0,0 km/h (0 Bft) N 0 0 min 0 UV-I 0 W/m 0,0 km/h (0 Bft)
28.06.2007 22:40 12,5 C 78 % 1012,5 hPa 0,0 mm 0,0 km/h (0 Bft) N 0 0 min 0 UV-I 0 W/m 0,0 km/h (0 Bft)
28.06.2007 22:50 12,1 C 79 % 1012,6 hPa 0,0 mm 0,0 km/h (0 Bft) N 0 0 min 0 UV-I 0 W/m 0,0 km/h (0 Bft)
28.06.2007 23:00 11,9 C 79 % 1012,6 hPa 0,0 mm 0,0 km/h (0 Bft) W-SW 247 0 min 0 UV-I 0 W/m 1,6 km/h (1 Bft)
28.06.2007 23:10 11,8 C 80 % 1012,7 hPa 0,0 mm 0,0 km/h (0 Bft) W-SW 247 0 min 0 UV-I 0 W/m 1,6 km/h (1 Bft)
28.06.2007 23:20 11,7 C 81 % 1012,7 hPa 0,0 mm 0,0 km/h (0 Bft) W-SW 247 0 min 0 UV-I 0 W/m 1,6 km/h (1 Bft)
28.06.2007 23:30 11,6 C 81 % 1012,8 hPa 0,0 mm 0,0 km/h (0 Bft) W-SW 247 0 min 0 UV-I 0 W/m 1,6 km/h (1 Bft)
28.06.2007 23:40 11,4 C 82 % 1012,9 hPa 0,0 mm 0,0 km/h (0 Bft) W-SW 247 0 min 0 UV-I 0 W/m 1,6 km/h (1 Bft)
28.06.2007 23:50 11,0 C 83 % 1013,0 hPa 0,0 mm 0,0 km/h (0 Bft) N 0 0 min 0 UV-I 0 W/m 0,0 km/h (0 Bft)
_ Min-Zeit 23:50 18:50 03:10 - 20:50 - - - - - 21:30
Minimum _ 10,8 C 52 % 1006,1 hPa - 0,0 km/h (0 Bft) - - - - - 0,0 km/h (0 Bft)
_ Max-Zeit 15:50 09:40 23:50 11:10 13:40 - - 06:00 13:00 13:00 16:00
Maximum _ 17,4 C 89 % 1013,0 hPa 0,5 mm 12,9 km/h
W (3 Bft)
- - 10 min 8 UV-I 1274 W/m 30,6 km/h
N (5 Bft)
Durchschnitt _ 13,7 C 75 % 1008,8 hPa #2,3 mm 4,6 km/h (1 Bft) W-SW - #5:40 h 2 UV-I 280 W/m 12,6 km/h (3 Bft)